createdAt,value
2023-04-29T00:00:58.214Z,27.02
2023-04-29T00:03:29.216Z,27.25
2023-04-29T00:05:57.481Z,24.92
2023-04-29T00:08:25.774Z,27.27
2023-04-29T00:10:53.567Z,23.40
2023-04-29T00:13:22.651Z,28.92
2023-04-29T00:15:50.799Z,24.15
2023-04-29T00:18:18.721Z,26.45
2023-04-29T00:20:46.529Z,27.52
2023-04-29T00:23:14.525Z,25.13
2023-04-29T00:25:42.241Z,25.83
2023-04-29T00:28:09.926Z,26.15
2023-04-29T00:30:39.225Z,25.92
2023-04-29T00:33:07.518Z,30.40
2023-04-29T00:35:36.371Z,30.05
2023-04-29T00:38:04.479Z,27.35
2023-04-29T00:40:32.672Z,25.92
2023-04-29T00:43:00.697Z,26.98
2023-04-29T00:45:28.656Z,30.85
2023-04-29T00:47:57.790Z,28.58
2023-04-29T00:50:25.786Z,31.50
2023-04-29T00:52:53.617Z,32.22
2023-04-29T00:55:21.682Z,29.85
2023-04-29T00:57:52.190Z,32.88
2023-04-29T01:00:20.283Z,33.10
2023-04-29T01:02:48.206Z,31.48
2023-04-29T01:05:17.887Z,35.38
2023-04-29T01:07:50.693Z,34.17
2023-04-29T01:10:25.849Z,31.45
2023-04-29T01:13:01.896Z,35.17
2023-04-29T01:15:32.041Z,31.45
2023-04-29T01:18:03.298Z,36.65
2023-04-29T01:20:33.392Z,36.55
2023-04-29T01:23:01.350Z,34.42
2023-04-29T01:25:31.532Z,35.00
2023-04-29T01:28:42.242Z,30.00
2023-04-29T01:31:13.688Z,34.17
2023-04-29T01:33:43.394Z,37.85
2023-04-29T01:36:20.046Z,32.47
2023-04-29T01:38:52.783Z,35.45
2023-04-29T01:41:29.456Z,41.40
2023-04-29T01:44:05.996Z,38.05
2023-04-29T01:46:33.904Z,41.30
2023-04-29T01:49:02.121Z,41.45
2023-04-29T01:51:30.380Z,41.65
2023-04-29T01:53:58.394Z,41.45
2023-04-29T01:56:27.867Z,38.35
2023-04-29T01:59:08.193Z,44.17
2023-04-29T02:01:59.140Z,38.92
2023-04-29T02:04:28.500Z,36.05
2023-04-29T02:06:56.360Z,40.25
2023-04-29T02:09:24.337Z,44.10
2023-04-29T02:11:57.949Z,40.78
2023-04-29T02:14:25.642Z,44.35
2023-04-29T02:16:54.018Z,46.08
2023-04-29T02:19:22.435Z,46.42
2023-04-29T02:21:53.302Z,44.97
2023-04-29T02:24:22.152Z,46.70
2023-04-29T02:26:49.842Z,40.67
2023-04-29T02:29:18.993Z,45.80
2023-04-29T02:31:46.757Z,38.80
2023-04-29T02:34:14.506Z,40.75
2023-04-29T02:36:42.186Z,39.25
2023-04-29T02:39:09.928Z,42.95
2023-04-29T02:41:37.666Z,42.05
2023-04-29T02:44:05.466Z,52.30
2023-04-29T02:46:36.356Z,39.67
2023-04-29T02:49:04.938Z,40.35
2023-04-29T02:51:33.385Z,42.65
2023-04-29T02:54:01.676Z,41.63
2023-04-29T02:56:29.675Z,40.92
2023-04-29T02:58:57.368Z,45.40
2023-04-29T03:01:25.248Z,44.38
2023-04-29T03:03:55.266Z,38.25
2023-04-29T03:06:23.032Z,43.72
2023-04-29T03:08:52.535Z,44.65
2023-04-29T03:11:20.654Z,44.75
2023-04-29T03:13:48.383Z,42.13
2023-04-29T03:16:16.969Z,42.42
2023-04-29T03:18:46.079Z,44.53
2023-04-29T03:21:15.200Z,45.95
2023-04-29T03:23:44.814Z,42.75
2023-04-29T03:26:18.580Z,47.65
2023-04-29T03:28:46.589Z,46.40
2023-04-29T03:31:16.348Z,42.17
2023-04-29T03:33:44.269Z,47.75
2023-04-29T03:36:12.036Z,51.45
2023-04-29T03:39:00.888Z,49.60
2023-04-29T03:41:29.559Z,56.28
2023-04-29T03:44:00.700Z,51.70
2023-04-29T03:46:30.274Z,55.72
2023-04-29T03:48:58.130Z,50.50
2023-04-29T03:51:26.981Z,47.65
2023-04-29T03:54:03.393Z,49.40
2023-04-29T03:56:31.147Z,47.03
2023-04-29T03:58:58.846Z,54.25
2023-04-29T04:01:27.753Z,47.40
2023-04-29T04:03:55.698Z,50.20
2023-04-29T04:06:23.589Z,47.53
2023-04-29T04:08:52.877Z,47.35
2023-04-29T04:11:27.641Z,41.75
2023-04-29T04:14:01.246Z,47.13
2023-04-29T04:16:29.416Z,50.63
2023-04-29T04:18:57.178Z,51.90
2023-04-29T04:21:25.581Z,49.50
2023-04-29T04:24:00.411Z,44.28
2023-04-29T04:26:32.671Z,50.95
2023-04-29T04:29:12.456Z,49.08
2023-04-29T04:32:09.292Z,52.05
2023-04-29T04:34:40.240Z,48.20
2023-04-29T04:37:08.698Z,51.08
2023-04-29T04:39:37.513Z,50.60
2023-04-29T04:42:07.116Z,47.65
2023-04-29T04:44:36.176Z,52.03
2023-04-29T04:47:08.028Z,51.70
2023-04-29T04:49:45.352Z,47.58
2023-04-29T04:52:13.574Z,46.97
2023-04-29T04:54:46.403Z,41.72
2023-04-29T04:57:20.152Z,46.13
2023-04-29T04:59:48.146Z,41.85
2023-04-29T05:02:16.664Z,48.90
2023-04-29T05:04:45.868Z,53.50
2023-04-29T05:07:16.186Z,51.00
2023-04-29T05:10:07.017Z,53.03
2023-04-29T05:12:40.601Z,43.53
2023-04-29T05:15:09.816Z,44.88
2023-04-29T05:17:38.044Z,48.20
2023-04-29T05:20:07.531Z,52.05
2023-04-29T05:22:35.600Z,44.60
2023-04-29T05:25:03.713Z,45.55
2023-04-29T05:27:34.675Z,45.35
2023-04-29T05:30:06.414Z,47.20
2023-04-29T05:32:35.141Z,41.95
2023-04-29T05:35:07.292Z,46.13
2023-04-29T05:37:36.055Z,39.08
2023-04-29T05:40:12.056Z,39.97
2023-04-29T05:42:40.481Z,37.60
2023-04-29T05:45:12.418Z,31.75
2023-04-29T05:47:40.249Z,30.20
2023-04-29T05:50:09.109Z,28.27
2023-04-29T05:52:37.221Z,25.67
2023-04-29T05:55:06.064Z,21.98
2023-04-29T05:57:34.059Z,24.08
2023-04-29T06:00:02.021Z,21.17
2023-04-29T06:02:55.227Z,19.17
2023-04-29T06:05:26.342Z,19.50
2023-04-29T06:08:08.334Z,19.55
2023-04-29T06:10:47.789Z,12.32
2023-04-29T06:13:15.674Z,13.52
2023-04-29T06:15:43.852Z,15.50
2023-04-29T06:18:12.887Z,13.55
2023-04-29T06:20:40.583Z,16.38
2023-04-29T06:23:08.706Z,16.38
2023-04-29T06:25:36.524Z,20.55
2023-04-29T06:28:09.075Z,15.48
2023-04-29T06:30:38.294Z,16.83
2023-04-29T06:33:06.089Z,14.13
2023-04-29T06:35:35.273Z,12.90
2023-04-29T06:38:08.072Z,17.00
2023-04-29T06:40:54.583Z,13.70
2023-04-29T06:43:28.652Z,15.57
2023-04-29T06:46:17.150Z,12.23
2023-04-29T06:48:53.160Z,14.50
2023-04-29T06:51:22.697Z,15.55
2023-04-29T06:53:50.446Z,10.20
2023-04-29T06:56:22.162Z,12.95
2023-04-29T06:58:49.811Z,11.43
2023-04-29T07:01:17.551Z,12.45
2023-04-29T07:03:46.324Z,8.93
2023-04-29T07:06:14.535Z,11.63
2023-04-29T07:08:43.580Z,11.18
2023-04-29T07:11:11.223Z,11.40
2023-04-29T07:13:38.921Z,9.43
2023-04-29T07:16:08.435Z,9.02
2023-04-29T07:18:36.125Z,8.77
2023-04-29T07:21:04.337Z,11.05
2023-04-29T07:23:32.231Z,9.23
2023-04-29T07:26:10.408Z,8.82
2023-04-29T07:28:38.180Z,8.52
2023-04-29T07:31:07.604Z,8.52
2023-04-29T07:33:35.982Z,8.32
2023-04-29T07:36:04.382Z,10.57
2023-04-29T07:38:32.185Z,9.70
2023-04-29T07:41:01.249Z,8.93
2023-04-29T07:43:29.743Z,8.90
2023-04-29T07:45:57.903Z,8.65
2023-04-29T07:48:25.751Z,9.15
2023-04-29T07:50:54.096Z,9.18
2023-04-29T07:53:22.139Z,9.15
2023-04-29T07:55:51.874Z,9.93
2023-04-29T07:58:23.314Z,9.27
2023-04-29T08:00:51.128Z,9.00
2023-04-29T08:03:19.311Z,9.05
2023-04-29T08:05:48.312Z,9.15
2023-04-29T08:08:17.767Z,10.07
2023-04-29T08:10:46.592Z,8.38
2023-04-29T08:13:14.326Z,9.90
2023-04-29T08:15:43.480Z,10.13
2023-04-29T08:18:11.517Z,9.32
2023-04-29T08:20:39.196Z,9.27
2023-04-29T08:23:06.947Z,8.98
2023-04-29T08:25:35.259Z,9.27
2023-04-29T08:28:03.144Z,8.65
2023-04-29T08:30:31.160Z,8.07
2023-04-29T08:33:00.398Z,10.15
2023-04-29T08:35:28.253Z,8.63
2023-04-29T08:37:56.134Z,8.32
2023-04-29T08:40:24.115Z,9.25
2023-04-29T08:42:52.314Z,8.48
2023-04-29T08:45:21.724Z,8.40
2023-04-29T08:47:51.427Z,7.75
2023-04-29T08:50:21.143Z,8.35
2023-04-29T08:52:49.493Z,8.00
2023-04-29T08:55:18.409Z,9.73
2023-04-29T08:57:47.775Z,9.70
2023-04-29T09:00:16.148Z,9.23
2023-04-29T09:02:47.125Z,9.02
2023-04-29T09:05:15.038Z,8.77
2023-04-29T09:07:44.950Z,9.63
2023-04-29T09:10:13.088Z,9.30
2023-04-29T09:12:40.906Z,9.52
2023-04-29T09:15:09.874Z,8.20
2023-04-29T09:17:42.460Z,8.05
2023-04-29T09:20:28.328Z,8.57
2023-04-29T09:22:59.717Z,9.85
2023-04-29T09:25:28.051Z,8.75
2023-04-29T09:27:56.127Z,8.43
2023-04-29T09:30:24.312Z,8.65
2023-04-29T09:33:08.927Z,8.52
2023-04-29T09:35:37.381Z,7.65
2023-04-29T09:38:15.551Z,7.35
2023-04-29T09:40:58.225Z,7.85
2023-04-29T09:43:27.599Z,7.25
2023-04-29T09:45:55.615Z,7.22
2023-04-29T09:48:23.569Z,8.52
2023-04-29T09:51:01.437Z,7.78
2023-04-29T09:53:32.138Z,8.13
2023-04-29T09:56:01.381Z,8.80
2023-04-29T09:58:31.437Z,7.70
2023-04-29T10:01:01.479Z,8.13
2023-04-29T10:03:33.348Z,8.43
2023-04-29T10:06:03.032Z,7.63
2023-04-29T10:08:32.768Z,8.20
2023-04-29T10:11:01.346Z,8.68
2023-04-29T10:13:30.245Z,7.88
2023-04-29T10:16:02.907Z,7.85
2023-04-29T10:18:37.200Z,8.05
2023-04-29T10:21:11.285Z,7.45
2023-04-29T10:23:40.917Z,7.18
2023-04-29T10:26:09.926Z,7.95
2023-04-29T10:28:39.291Z,8.45
2023-04-29T10:31:08.162Z,8.85
2023-04-29T10:33:37.730Z,10.63
2023-04-29T10:36:06.403Z,9.05
2023-04-29T10:38:36.943Z,9.63
2023-04-29T10:41:10.976Z,8.45
2023-04-29T10:43:38.970Z,9.48
2023-04-29T10:46:20.451Z,8.65
2023-04-29T10:48:49.269Z,8.95
2023-04-29T10:51:31.352Z,8.38
2023-04-29T10:54:01.046Z,8.32
2023-04-29T10:56:50.253Z,7.45
2023-04-29T10:59:22.096Z,8.18
2023-04-29T11:01:51.127Z,9.38
2023-04-29T11:04:20.066Z,11.23
2023-04-29T11:06:52.330Z,9.25
2023-04-29T11:09:22.032Z,8.15
2023-04-29T11:11:59.537Z,9.18
2023-04-29T11:14:28.360Z,9.02
2023-04-29T11:16:58.937Z,7.78
2023-04-29T11:19:32.213Z,8.30
2023-04-29T11:22:11.844Z,7.70
2023-04-29T11:24:50.328Z,7.90
2023-04-29T11:27:22.804Z,7.90
2023-04-29T11:29:51.323Z,6.57
2023-04-29T11:32:21.652Z,7.35
2023-04-29T11:34:49.483Z,7.78
2023-04-29T11:37:22.055Z,7.50
2023-04-29T11:39:50.263Z,7.25
2023-04-29T11:42:22.321Z,7.50
2023-04-29T11:44:53.470Z,8.18
2023-04-29T11:47:22.536Z,7.97
2023-04-29T11:49:50.294Z,7.20
2023-04-29T11:52:18.112Z,7.88
2023-04-29T11:54:46.489Z,7.25
2023-04-29T11:57:15.092Z,7.53
2023-04-29T11:59:45.233Z,7.57
2023-04-29T12:02:14.110Z,7.47
2023-04-29T12:04:48.447Z,6.75
2023-04-29T12:07:17.902Z,6.35
2023-04-29T12:09:46.291Z,6.30
2023-04-29T12:12:15.797Z,6.10
2023-04-29T12:14:45.266Z,5.18
2023-04-29T12:17:13.155Z,5.43
2023-04-29T12:19:41.445Z,5.60
2023-04-29T12:22:09.367Z,5.93
2023-04-29T12:24:38.215Z,5.88
2023-04-29T12:27:09.396Z,5.55
2023-04-29T12:29:37.227Z,6.05
2023-04-29T12:32:06.490Z,6.00
2023-04-29T12:34:35.154Z,5.88
2023-04-29T12:37:03.469Z,5.95
2023-04-29T12:39:33.171Z,6.40
2023-04-29T12:42:03.109Z,5.97
2023-04-29T12:44:36.388Z,6.75
2023-04-29T12:47:10.263Z,6.22
2023-04-29T12:49:38.439Z,6.07
2023-04-29T12:52:09.453Z,5.95
2023-04-29T12:54:37.954Z,6.43
2023-04-29T12:57:05.981Z,6.05
2023-04-29T12:59:34.107Z,6.45
2023-04-29T13:02:01.865Z,6.72
2023-04-29T13:04:31.276Z,6.60
2023-04-29T13:07:00.763Z,6.78
2023-04-29T13:09:30.653Z,6.22
2023-04-29T13:11:59.247Z,5.45
2023-04-29T13:14:27.665Z,4.95
2023-04-29T13:16:55.533Z,4.43
2023-04-29T13:21:56.073Z,4.00
2023-04-29T13:24:23.910Z,3.72
2023-04-29T13:26:52.707Z,3.88
2023-04-29T13:29:21.145Z,3.42
2023-04-29T13:31:49.710Z,3.42
2023-04-29T13:34:17.799Z,3.40
2023-04-29T13:36:45.609Z,3.55
2023-04-29T13:39:15.471Z,4.05
2023-04-29T13:41:45.767Z,4.35
2023-04-29T13:44:24.901Z,3.90
2023-04-29T13:46:58.722Z,4.65
2023-04-29T13:57:50.286Z,4.10
2023-04-29T13:59:53.341Z,3.97
2023-04-29T14:02:25.451Z,3.75
2023-04-29T14:04:54.725Z,3.92
2023-04-29T14:07:22.829Z,3.80
2023-04-29T14:09:51.916Z,4.18
2023-04-29T14:12:20.332Z,3.90
2023-04-29T14:14:48.871Z,3.90
2023-04-29T14:17:16.591Z,3.70
2023-04-29T14:19:44.414Z,3.38
2023-04-29T14:22:12.218Z,3.42
2023-04-29T14:24:40.464Z,3.55
2023-04-29T14:27:09.825Z,3.72
2023-04-29T14:29:37.499Z,3.05
2023-04-29T14:32:07.362Z,2.92
2023-04-29T14:34:35.019Z,2.90
2023-04-29T14:37:03.232Z,2.78
2023-04-29T14:39:31.896Z,2.38
2023-04-29T14:42:00.811Z,3.10
2023-04-29T14:44:32.056Z,2.88
2023-04-29T14:47:00.659Z,2.63
2023-04-29T14:49:30.953Z,2.78
2023-04-29T14:51:59.745Z,2.53
2023-04-29T14:54:27.872Z,2.50
2023-04-29T14:56:55.590Z,2.45
2023-04-29T14:59:23.360Z,2.70
2023-04-29T15:01:52.591Z,2.50
2023-04-29T15:04:20.441Z,2.40
2023-04-29T15:06:48.249Z,2.47
2023-04-29T15:09:17.410Z,2.70
2023-04-29T15:11:46.106Z,2.60
2023-04-29T15:14:14.131Z,2.40
2023-04-29T15:16:42.260Z,2.47
2023-04-29T15:19:11.746Z,2.75
2023-04-29T15:21:39.474Z,2.45
2023-04-29T15:24:08.498Z,2.88
2023-04-29T15:26:36.253Z,2.70
2023-04-29T15:29:04.134Z,2.80
2023-04-29T15:31:32.123Z,2.83
2023-04-29T15:34:00.728Z,3.88
2023-04-29T15:36:32.047Z,2.97
2023-04-29T15:39:00.938Z,2.90
2023-04-29T15:41:28.935Z,3.30
2023-04-29T15:43:57.674Z,3.22
2023-04-29T15:46:25.536Z,2.90
2023-04-29T15:48:54.044Z,3.08
2023-04-29T15:51:21.801Z,2.67
2023-04-29T15:53:51.773Z,3.05
2023-04-29T15:56:19.524Z,3.17
2023-04-29T15:58:47.536Z,3.33
2023-04-29T16:01:16.277Z,3.72
2023-04-29T16:03:44.141Z,3.20
2023-04-29T16:06:12.120Z,5.55
2023-04-29T16:08:40.072Z,5.72
2023-04-29T16:11:09.177Z,3.20
2023-04-29T16:13:36.928Z,4.68
2023-04-29T16:16:04.794Z,5.07
2023-04-29T16:18:33.690Z,3.40
2023-04-29T16:21:01.399Z,4.70
2023-04-29T16:23:29.165Z,3.75
2023-04-29T16:25:56.894Z,3.78
2023-04-29T16:28:26.896Z,5.63
2023-04-29T16:30:54.750Z,4.90
2023-04-29T16:33:22.877Z,4.18
2023-04-29T16:35:50.537Z,4.63
2023-04-29T16:38:18.598Z,3.17
2023-04-29T16:40:47.492Z,3.67
2023-04-29T16:43:17.083Z,3.20
2023-04-29T16:45:46.150Z,2.58
2023-04-29T16:48:13.844Z,3.25
2023-04-29T16:50:42.291Z,2.25
2023-04-29T16:53:10.141Z,3.88
2023-04-29T16:55:37.929Z,2.42
2023-04-29T16:58:06.435Z,2.60
2023-04-29T17:00:34.415Z,4.82
2023-04-29T17:03:03.860Z,2.92
2023-04-29T17:05:31.578Z,3.97
2023-04-29T17:07:59.364Z,2.28
2023-04-29T17:10:27.678Z,2.45
2023-04-29T17:12:55.418Z,5.22
2023-04-29T17:15:23.201Z,5.70
2023-04-29T17:17:51.282Z,4.97
2023-04-29T17:20:21.536Z,3.90
2023-04-29T17:22:49.231Z,4.00
2023-04-29T17:25:17.887Z,5.63
2023-04-29T17:27:46.081Z,2.30
2023-04-29T17:30:14.414Z,1.95
2023-04-29T17:32:44.185Z,5.85
2023-04-29T17:35:12.112Z,3.47
2023-04-29T17:37:41.575Z,4.13
2023-04-29T17:40:10.496Z,4.03
2023-04-29T17:42:38.688Z,2.72
2023-04-29T17:45:08.412Z,5.93
2023-04-29T17:47:36.423Z,7.07
2023-04-29T17:50:04.244Z,7.18
2023-04-29T17:52:31.925Z,6.03
2023-04-29T17:55:00.985Z,5.85
2023-04-29T17:57:29.565Z,4.15
2023-04-29T17:59:58.127Z,8.90
2023-04-29T18:02:25.929Z,2.60
2023-04-29T18:04:53.872Z,3.70
2023-04-29T18:07:22.284Z,4.18
2023-04-29T18:09:49.921Z,4.60
2023-04-29T18:12:19.701Z,2.25
2023-04-29T18:14:48.717Z,2.88
2023-04-29T18:17:16.395Z,5.38
2023-04-29T18:19:47.485Z,3.88
2023-04-29T18:22:15.502Z,9.07
2023-04-29T18:24:43.327Z,3.63
2023-04-29T18:27:11.188Z,2.83
2023-04-29T18:29:40.345Z,4.30
2023-04-29T18:32:08.399Z,3.08
2023-04-29T18:34:36.504Z,3.33
2023-04-29T18:37:04.426Z,4.47
2023-04-29T18:39:32.066Z,4.70
2023-04-29T18:42:00.625Z,6.32
2023-04-29T18:44:28.966Z,3.70
2023-04-29T18:46:58.195Z,5.03
2023-04-29T18:49:26.323Z,6.33
2023-04-29T18:51:54.025Z,4.93
2023-04-29T18:54:21.916Z,4.20
2023-04-29T18:56:50.776Z,5.80
2023-04-29T18:59:19.937Z,4.15
2023-04-29T19:01:48.251Z,4.72
2023-04-29T19:04:18.253Z,5.53
2023-04-29T19:06:46.242Z,6.72
2023-04-29T19:09:14.606Z,4.03
2023-04-29T19:11:42.469Z,6.63
2023-04-29T19:14:10.605Z,5.60
2023-04-29T19:16:39.396Z,4.13
2023-04-29T19:19:07.494Z,3.20
2023-04-29T19:21:36.786Z,3.28
2023-04-29T19:24:04.800Z,5.18
2023-04-29T19:26:34.971Z,7.57
2023-04-29T19:29:04.239Z,3.88
2023-04-29T19:31:32.083Z,7.15
2023-04-29T19:34:00.249Z,5.72
2023-04-29T19:36:28.331Z,2.40
2023-04-29T19:38:57.482Z,3.67
2023-04-29T19:41:25.473Z,3.80
2023-04-29T19:43:53.195Z,2.97
2023-04-29T19:46:21.012Z,6.03
2023-04-29T19:48:48.821Z,2.80
2023-04-29T19:51:16.828Z,4.47
2023-04-29T19:53:45.077Z,4.80
2023-04-29T19:56:14.096Z,2.65
2023-04-29T19:58:41.808Z,2.95
2023-04-29T20:01:10.298Z,5.47
2023-04-29T20:03:39.349Z,7.35
2023-04-29T20:06:08.677Z,4.90
2023-04-29T20:08:37.114Z,5.68
2023-04-29T20:11:05.092Z,4.65
2023-04-29T20:13:34.820Z,4.53
2023-04-29T20:16:02.834Z,5.75
2023-04-29T20:18:30.692Z,4.78
2023-04-29T20:20:58.433Z,5.15
2023-04-29T20:23:26.231Z,6.82
2023-04-29T20:25:54.519Z,3.95
2023-04-29T20:28:22.264Z,8.63
2023-04-29T20:30:51.604Z,3.58
2023-04-29T20:33:19.281Z,7.05
2023-04-29T20:35:46.951Z,3.83
2023-04-29T20:38:14.645Z,6.28
2023-04-29T20:40:42.293Z,6.63
2023-04-29T20:43:10.632Z,5.97
2023-04-29T20:45:38.691Z,8.02
2023-04-29T20:48:08.650Z,7.55
2023-04-29T20:50:36.531Z,6.60
2023-04-29T20:53:04.487Z,4.90
2023-04-29T20:55:32.222Z,4.88
2023-04-29T20:57:59.915Z,6.68
2023-04-29T21:00:27.705Z,5.07
2023-04-29T21:02:55.840Z,6.70
2023-04-29T21:05:25.256Z,5.57
2023-04-29T21:07:52.996Z,6.15
2023-04-29T21:10:21.732Z,5.90
2023-04-29T21:12:49.952Z,5.28
2023-04-29T21:15:17.831Z,5.82
2023-04-29T21:17:45.973Z,4.38
2023-04-29T21:20:14.215Z,3.88
2023-04-29T21:22:43.989Z,9.55
2023-04-29T21:25:12.355Z,9.32
2023-04-29T21:27:40.025Z,8.98
2023-04-29T21:30:08.864Z,5.90
2023-04-29T21:32:36.665Z,8.52
2023-04-29T21:35:05.246Z,4.72
2023-04-29T21:37:33.837Z,6.40
2023-04-29T21:40:04.146Z,9.60
2023-04-29T21:42:32.282Z,5.47
2023-04-29T21:45:01.442Z,9.63
2023-04-29T21:47:29.929Z,9.23
2023-04-29T21:49:58.247Z,7.68
2023-04-29T21:52:26.232Z,9.55
2023-04-29T21:54:54.086Z,7.03
2023-04-29T21:57:35.562Z,6.53
2023-04-29T22:00:21.568Z,7.85
2023-04-29T22:02:49.388Z,15.30
2023-04-29T22:05:17.349Z,5.85
2023-04-29T22:07:45.843Z,6.03
2023-04-29T22:10:16.006Z,7.05
2023-04-29T22:12:45.249Z,5.18
2023-04-29T22:15:21.034Z,10.43
2023-04-29T22:17:56.805Z,9.20
2023-04-29T22:20:25.327Z,8.32
2023-04-29T22:22:53.099Z,10.85
2023-04-29T22:25:22.402Z,9.68
2023-04-29T22:27:52.397Z,6.03
2023-04-29T22:30:20.734Z,8.55
2023-04-29T22:32:48.664Z,6.00
2023-04-29T22:35:17.239Z,4.75
2023-04-29T22:37:44.941Z,6.95
2023-04-29T22:40:13.986Z,9.35
2023-04-29T22:42:42.786Z,7.75
2023-04-29T22:45:13.136Z,5.88
2023-04-29T22:47:40.886Z,9.35
2023-04-29T22:50:10.055Z,9.07
2023-04-29T22:52:37.990Z,10.63
2023-04-29T22:55:07.010Z,6.07
2023-04-29T22:57:35.065Z,11.95
2023-04-29T23:00:03.561Z,9.82
2023-04-29T23:02:32.781Z,10.77
2023-04-29T23:05:00.620Z,11.32
2023-04-29T23:07:28.705Z,10.40
2023-04-29T23:09:56.581Z,7.63
2023-04-29T23:12:25.298Z,6.18
2023-04-29T23:14:53.451Z,8.82
2023-04-29T23:17:21.270Z,7.32
2023-04-29T23:19:50.740Z,13.18
2023-04-29T23:22:18.762Z,7.57
2023-04-29T23:24:46.540Z,11.33
2023-04-29T23:27:14.258Z,7.82
2023-04-29T23:29:42.060Z,11.80
2023-04-29T23:32:10.078Z,10.40
2023-04-29T23:34:37.755Z,9.73
2023-04-29T23:37:07.297Z,10.00
2023-04-29T23:39:35.074Z,9.63
2023-04-29T23:42:03.772Z,11.70
2023-04-29T23:44:31.440Z,8.33
2023-04-29T23:46:59.145Z,8.30
2023-04-29T23:49:26.916Z,9.20
2023-04-29T23:51:54.633Z,7.53
2023-04-29T23:54:23.776Z,15.60
2023-04-29T23:56:52.002Z,7.23
2023-04-29T23:59:19.797Z,11.60
